createdAt,value
2018-12-11T00:02:03.994Z,96.20
2018-12-11T00:04:37.861Z,96.20
2018-12-11T00:07:12.557Z,96.20
2018-12-11T00:10:04.451Z,96.30
2018-12-11T00:12:37.287Z,96.30
2018-12-11T00:15:28.972Z,96.20
2018-12-11T00:18:03.816Z,96.20
2018-12-11T00:23:37.679Z,96.30
2018-12-11T00:26:12.363Z,96.30
2018-12-11T00:28:46.383Z,96.30
2018-12-11T00:31:20.465Z,96.10
2018-12-11T00:33:54.466Z,96.00
2018-12-11T00:36:42.086Z,96.00
2018-12-11T00:39:17.111Z,96.00
2018-12-11T00:41:51.168Z,95.90
2018-12-11T00:44:25.469Z,95.90
2018-12-11T00:47:03.615Z,95.90
2018-12-11T00:49:37.649Z,96.00
2018-12-11T00:52:11.971Z,96.00
2018-12-11T00:54:47.730Z,96.00
2018-12-11T00:57:22.144Z,96.00
2018-12-11T00:59:56.276Z,96.00
2018-12-11T01:02:30.348Z,95.90
2018-12-11T01:08:10.444Z,96.00
2018-12-11T01:10:44.777Z,96.00
2018-12-11T01:13:19.041Z,96.10
2018-12-11T01:15:53.243Z,96.10
2018-12-11T01:18:27.435Z,96.10
2018-12-11T01:21:01.484Z,96.10
2018-12-11T01:23:35.398Z,96.00
2018-12-11T01:26:09.354Z,96.00
2018-12-11T01:28:43.440Z,95.90
2018-12-11T01:31:17.494Z,95.80
2018-12-11T01:33:51.646Z,95.70
2018-12-11T01:36:25.907Z,95.60
2018-12-11T01:39:00.226Z,95.70
2018-12-11T01:41:34.505Z,95.60
2018-12-11T01:44:08.998Z,95.70
2018-12-11T01:46:42.922Z,95.70
2018-12-11T01:49:16.961Z,95.60
2018-12-11T01:51:51.156Z,95.60
2018-12-11T01:54:25.339Z,95.60
2018-12-11T01:57:06.370Z,95.70
2018-12-11T01:59:40.776Z,95.70
2018-12-11T02:02:15.029Z,95.80
2018-12-11T02:04:49.311Z,95.70
2018-12-11T02:07:38.638Z,95.80
2018-12-11T02:10:15.717Z,95.90
2018-12-11T02:12:49.809Z,95.90
2018-12-11T02:15:24.050Z,95.90
2018-12-11T02:17:58.036Z,95.90
2018-12-11T02:20:32.131Z,95.80
2018-12-11T02:23:06.388Z,95.80
2018-12-11T02:25:40.461Z,95.80
2018-12-11T02:28:14.640Z,95.80
2018-12-11T02:30:48.713Z,95.80
2018-12-11T02:33:22.922Z,95.90
2018-12-11T02:35:54.267Z,95.90
2018-12-11T02:38:28.336Z,95.80
2018-12-11T02:41:03.264Z,95.70
2018-12-11T02:43:40.715Z,95.70
2018-12-11T02:46:22.368Z,95.70
2018-12-11T02:48:56.745Z,95.60
2018-12-11T02:51:30.817Z,95.70
2018-12-11T02:54:05.113Z,95.70
2018-12-11T02:56:38.980Z,95.80
2018-12-11T02:59:12.906Z,95.80
2018-12-11T03:01:46.907Z,95.80
2018-12-11T03:04:20.937Z,95.90
2018-12-11T03:06:55.026Z,95.90
2018-12-11T03:09:42.364Z,95.90
2018-12-11T03:12:16.221Z,96.00
2018-12-11T03:14:53.218Z,96.10
2018-12-11T03:17:27.490Z,96.00
2018-12-11T03:20:05.466Z,96.00
2018-12-11T03:22:53.043Z,96.10
2018-12-11T03:25:27.903Z,96.10
2018-12-11T03:28:01.788Z,96.10
2018-12-11T03:30:35.902Z,96.10
2018-12-11T03:33:23.166Z,96.10
2018-12-11T03:35:58.972Z,96.20
2018-12-11T03:38:33.096Z,96.10
2018-12-11T03:41:07.035Z,96.10
2018-12-11T03:43:41.051Z,96.10
2018-12-11T03:46:18.352Z,96.10
2018-12-11T03:48:57.624Z,96.10
2018-12-11T03:51:44.488Z,96.10
2018-12-11T03:54:18.993Z,96.20
2018-12-11T03:56:52.981Z,96.20
2018-12-11T03:59:27.328Z,96.30
2018-12-11T04:02:01.212Z,96.30
2018-12-11T04:04:39.926Z,96.30
2018-12-11T04:07:12.634Z,96.20
2018-12-11T04:09:46.880Z,96.10
2018-12-11T04:12:21.496Z,96.00
2018-12-11T04:14:56.308Z,96.00
2018-12-11T04:17:33.713Z,96.00
2018-12-11T04:20:08.356Z,95.90
2018-12-11T04:22:45.197Z,95.80
2018-12-11T04:25:35.761Z,95.80
2018-12-11T04:28:07.676Z,95.80
2018-12-11T04:30:42.060Z,95.90
2018-12-11T04:33:16.526Z,96.30
2018-12-11T04:35:50.605Z,95.90
2018-12-11T04:40:58.050Z,95.90
2018-12-11T04:43:32.339Z,95.90
2018-12-11T04:46:06.365Z,95.90
2018-12-11T04:48:40.365Z,96.00
2018-12-11T04:51:14.532Z,95.90
2018-12-11T04:53:48.814Z,96.00
2018-12-11T04:56:26.873Z,96.00
2018-12-11T04:59:00.972Z,96.00
2018-12-11T05:01:35.004Z,96.00
2018-12-11T05:04:07.740Z,96.00
2018-12-11T05:06:42.024Z,95.90
2018-12-11T05:09:16.223Z,95.80
2018-12-11T05:11:50.240Z,95.80
2018-12-11T05:14:24.193Z,95.80
2018-12-11T05:16:58.787Z,95.70
2018-12-11T05:19:33.449Z,95.60
2018-12-11T05:22:14.248Z,95.60
2018-12-11T05:24:46.092Z,95.60
2018-12-11T05:27:36.296Z,95.60
2018-12-11T05:30:10.971Z,95.50
2018-12-11T05:33:02.555Z,95.50
2018-12-11T05:35:37.302Z,95.50
2018-12-11T05:38:11.547Z,95.60
2018-12-11T05:40:49.751Z,95.70
2018-12-11T05:43:37.448Z,95.80
2018-12-11T05:46:11.317Z,95.80
2018-12-11T05:48:45.489Z,95.80
2018-12-11T05:51:19.433Z,95.70
2018-12-11T05:53:54.146Z,95.70
2018-12-11T05:56:41.613Z,95.70
2018-12-11T05:59:15.529Z,95.60
2018-12-11T06:01:49.715Z,95.60
2018-12-11T06:04:23.895Z,95.50
2018-12-11T06:06:57.817Z,95.60
2018-12-11T06:09:29.381Z,95.50
2018-12-11T06:12:03.859Z,95.50
2018-12-11T06:14:38.562Z,95.60
2018-12-11T06:17:12.608Z,95.60
2018-12-11T06:22:49.979Z,95.60
2018-12-11T06:25:24.147Z,95.70
2018-12-11T06:27:58.102Z,95.80
2018-12-11T06:30:32.352Z,95.90
2018-12-11T06:33:09.754Z,96.10
2018-12-11T06:35:44.050Z,96.10
2018-12-11T06:38:17.985Z,96.10
2018-12-11T06:40:52.132Z,96.10
2018-12-11T06:43:26.408Z,96.10
2018-12-11T06:46:00.924Z,96.10
2018-12-11T06:51:41.113Z,96.00
2018-12-11T06:54:19.225Z,96.00
2018-12-11T06:56:53.342Z,96.00
2018-12-11T06:59:27.619Z,96.00
2018-12-11T07:02:01.757Z,96.00
2018-12-11T07:04:41.050Z,96.10
2018-12-11T07:07:15.175Z,96.00
2018-12-11T07:09:49.386Z,96.10
2018-12-11T07:12:23.726Z,96.10
2018-12-11T07:18:12.465Z,96.20
2018-12-11T07:20:46.870Z,96.40
2018-12-11T07:23:20.824Z,96.60
2018-12-11T07:25:55.109Z,96.60
2018-12-11T07:28:29.231Z,96.60
2018-12-11T07:34:09.731Z,96.50
2018-12-11T07:39:32.346Z,96.50
2018-12-11T07:42:08.901Z,96.60
2018-12-11T07:44:48.096Z,96.50
2018-12-11T07:47:19.531Z,96.50
2018-12-11T07:49:53.553Z,96.50
2018-12-11T07:52:27.534Z,96.40
2018-12-11T07:55:01.444Z,96.30
2018-12-11T07:57:35.907Z,96.30
2018-12-11T08:00:11.475Z,96.60
2018-12-11T08:02:46.025Z,96.20
2018-12-11T08:05:20.280Z,96.20
2018-12-11T08:07:54.793Z,96.20
2018-12-11T08:10:28.970Z,96.20
2018-12-11T08:13:03.133Z,96.20
2018-12-11T08:15:37.191Z,96.20
2018-12-11T08:18:11.197Z,96.30
2018-12-11T08:20:45.290Z,96.40
2018-12-11T08:23:37.657Z,96.30
2018-12-11T08:26:12.503Z,96.30
2018-12-11T08:28:46.664Z,96.40
2018-12-11T08:31:20.737Z,96.40
2018-12-11T08:33:54.727Z,96.50
2018-12-11T08:36:29.012Z,96.60
2018-12-11T08:39:03.928Z,96.70
2018-12-11T08:41:39.415Z,96.80
2018-12-11T08:44:13.798Z,96.80
2018-12-11T08:46:48.019Z,96.90
2018-12-11T08:49:22.015Z,96.80
2018-12-11T08:51:56.178Z,96.70
2018-12-11T08:54:30.677Z,96.50
2018-12-11T08:57:07.729Z,96.50
2018-12-11T08:59:44.052Z,96.40
2018-12-11T09:02:18.094Z,96.40
2018-12-11T09:04:56.468Z,96.30
2018-12-11T09:07:30.737Z,96.30
2018-12-11T09:10:06.620Z,96.20
2018-12-11T09:12:43.863Z,96.20
2018-12-11T09:15:18.016Z,96.20
2018-12-11T09:17:52.372Z,96.30
2018-12-11T09:20:26.272Z,96.30
2018-12-11T09:23:00.471Z,96.00
2018-12-11T09:25:34.452Z,96.00
2018-12-11T09:28:11.175Z,95.80
2018-12-11T09:30:44.996Z,95.30
2018-12-11T09:33:21.318Z,95.30
2018-12-11T09:35:55.363Z,95.10
2018-12-11T09:38:29.451Z,95.00
2018-12-11T09:41:03.672Z,94.90
2018-12-11T09:43:37.857Z,95.00
2018-12-11T09:46:11.819Z,94.90
2018-12-11T09:48:45.861Z,94.80
2018-12-11T09:51:19.990Z,94.80
2018-12-11T09:53:54.153Z,94.90
2018-12-11T09:56:28.168Z,94.80
2018-12-11T09:59:02.320Z,94.80
2018-12-11T10:01:36.406Z,94.70
2018-12-11T10:04:10.698Z,94.90
2018-12-11T10:06:44.734Z,94.90
2018-12-11T10:09:18.766Z,94.80
2018-12-11T10:11:53.050Z,94.90
2018-12-11T10:14:27.436Z,94.70
2018-12-11T10:17:01.565Z,94.40
2018-12-11T10:19:34.289Z,94.40
2018-12-11T10:22:08.563Z,94.10
2018-12-11T10:24:42.534Z,94.00
2018-12-11T10:27:16.853Z,94.00
2018-12-11T10:29:50.857Z,93.70
2018-12-11T10:32:24.916Z,93.70
2018-12-11T10:34:59.018Z,93.40
2018-12-11T10:37:33.309Z,93.70
2018-12-11T10:40:07.495Z,93.30
2018-12-11T10:42:41.670Z,93.10
2018-12-11T10:45:15.564Z,93.00
2018-12-11T10:47:49.577Z,92.50
2018-12-11T10:50:23.501Z,92.30
2018-12-11T10:52:57.548Z,92.50
2018-12-11T10:55:31.518Z,92.60
2018-12-11T10:58:05.851Z,92.40
2018-12-11T11:00:46.892Z,92.50
2018-12-11T11:03:18.609Z,92.70
2018-12-11T11:05:52.530Z,92.80
2018-12-11T11:08:26.978Z,92.80
2018-12-11T11:11:01.117Z,92.60
2018-12-11T11:13:41.806Z,92.60
2018-12-11T11:16:15.512Z,92.60
2018-12-11T11:18:47.574Z,92.30
2018-12-11T11:21:19.694Z,92.60
2018-12-11T11:23:51.734Z,92.60
2018-12-11T11:26:25.755Z,92.60
2018-12-11T11:28:59.846Z,92.40
2018-12-11T11:31:47.121Z,91.90
2018-12-11T11:34:34.385Z,91.70
2018-12-11T11:37:08.487Z,92.10
2018-12-11T11:39:42.438Z,92.10
2018-12-11T11:42:18.468Z,92.00
2018-12-11T11:44:53.963Z,92.00
2018-12-11T11:47:28.374Z,92.00
2018-12-11T11:50:02.670Z,91.90
2018-12-11T11:52:35.219Z,91.40
2018-12-11T11:55:09.763Z,90.50
2018-12-11T11:57:44.057Z,88.40
2018-12-11T12:00:18.380Z,88.30
2018-12-11T12:05:52.404Z,87.50
2018-12-11T12:08:26.489Z,88.10
2018-12-11T12:11:00.816Z,88.40
2018-12-11T12:13:34.998Z,89.00
2018-12-11T12:16:09.527Z,88.60
2018-12-11T12:24:44.168Z,89.00
2018-12-11T12:27:15.799Z,89.00
2018-12-11T12:29:58.358Z,90.00
2018-12-11T12:32:33.015Z,89.40
2018-12-11T12:35:07.211Z,89.20
2018-12-11T12:37:41.698Z,90.00
2018-12-11T12:40:16.397Z,90.00
2018-12-11T12:42:50.723Z,90.00
2018-12-11T12:48:24.782Z,90.20
2018-12-11T12:50:58.855Z,90.40
2018-12-11T12:53:33.103Z,90.50
2018-12-11T12:59:04.179Z,90.40
2018-12-11T13:01:38.462Z,90.40
2018-12-11T13:04:12.802Z,90.50
2018-12-11T13:06:51.155Z,90.60
2018-12-11T13:09:25.315Z,90.60
2018-12-11T13:12:00.376Z,90.70
2018-12-11T13:14:34.732Z,90.90
2018-12-11T13:17:08.840Z,90.80
2018-12-11T13:19:43.024Z,90.90
2018-12-11T13:22:17.267Z,91.00
2018-12-11T13:24:51.506Z,91.00
2018-12-11T13:27:33.375Z,91.10
2018-12-11T13:30:08.028Z,91.30
2018-12-11T13:32:42.032Z,91.40
2018-12-11T13:35:16.159Z,91.00
2018-12-11T13:37:50.440Z,91.00
2018-12-11T13:40:24.766Z,91.00
2018-12-11T13:42:58.916Z,90.90
2018-12-11T13:45:33.095Z,90.80
2018-12-11T13:48:23.543Z,90.90
2018-12-11T13:50:57.505Z,91.00
2018-12-11T13:53:29.437Z,91.20
2018-12-11T13:56:03.307Z,91.30
2018-12-11T13:58:37.294Z,91.40
2018-12-11T14:01:11.467Z,91.20
2018-12-11T14:03:45.669Z,91.30
2018-12-11T14:06:19.624Z,91.10
2018-12-11T14:08:53.708Z,90.90
2018-12-11T14:11:28.071Z,91.20
2018-12-11T14:14:05.009Z,91.10
2018-12-11T14:16:43.110Z,91.10
2018-12-11T14:19:17.356Z,91.20
2018-12-11T14:21:51.845Z,91.20
2018-12-11T14:24:26.362Z,91.10
2018-12-11T14:27:00.348Z,91.40
2018-12-11T14:29:34.585Z,91.10
2018-12-11T14:32:09.106Z,91.00
2018-12-11T14:34:43.179Z,91.10
2018-12-11T14:37:17.230Z,91.10
2018-12-11T14:39:54.770Z,91.20
2018-12-11T14:42:28.790Z,91.20
2018-12-11T14:45:07.945Z,91.10
2018-12-11T14:47:55.276Z,91.20
2018-12-11T14:50:30.849Z,91.10
2018-12-11T14:56:04.931Z,91.20
2018-12-11T14:58:36.347Z,91.00
2018-12-11T15:01:10.318Z,91.10
2018-12-11T15:03:57.911Z,91.20
2018-12-11T15:06:31.929Z,91.50
2018-12-11T15:11:39.484Z,91.30
2018-12-11T15:14:13.395Z,91.40
2018-12-11T15:16:49.577Z,91.40
2018-12-11T15:19:23.693Z,91.50
2018-12-11T15:21:57.789Z,91.50
2018-12-11T15:24:31.770Z,91.50
2018-12-11T15:27:05.836Z,91.40
2018-12-11T15:29:40.011Z,91.50
2018-12-11T15:32:24.758Z,91.60
2018-12-11T15:34:58.817Z,91.60
2018-12-11T15:37:32.742Z,91.60
2018-12-11T15:40:06.168Z,91.70
2018-12-11T15:42:38.903Z,91.70
2018-12-11T15:45:15.359Z,91.80
2018-12-11T15:48:10.148Z,91.80
2018-12-11T15:50:44.290Z,91.80
2018-12-11T15:53:18.550Z,91.80
2018-12-11T15:55:52.532Z,91.90
2018-12-11T15:58:26.720Z,91.90
2018-12-11T16:01:00.984Z,91.90
2018-12-11T16:03:35.230Z,91.90
2018-12-11T16:06:09.410Z,91.80
2018-12-11T16:11:43.271Z,91.90
2018-12-11T16:14:17.658Z,91.90
2018-12-11T16:16:51.614Z,92.00
2018-12-11T16:19:25.766Z,92.00
2018-12-11T16:37:26.080Z,92.10
2018-12-11T16:40:04.795Z,92.10
2018-12-11T16:42:39.288Z,92.10
2018-12-11T16:45:13.462Z,92.20
2018-12-11T16:47:47.676Z,92.20
2018-12-11T16:50:22.136Z,92.20
2018-12-11T16:56:00.840Z,92.20
2018-12-11T16:58:34.999Z,92.30
2018-12-11T17:01:09.109Z,92.30
2018-12-11T17:06:49.242Z,92.40
2018-12-11T17:09:23.781Z,92.40
2018-12-11T17:12:02.310Z,92.40
2018-12-11T17:14:36.414Z,92.30
2018-12-11T17:17:10.514Z,92.40
2018-12-11T17:22:49.446Z,92.40
2018-12-11T17:25:23.709Z,92.40
2018-12-11T17:27:57.797Z,92.50
2018-12-11T17:30:31.873Z,92.50
2018-12-11T17:33:06.248Z,92.50
2018-12-11T17:35:44.118Z,92.60
2018-12-11T17:38:18.613Z,92.60
2018-12-11T17:40:53.427Z,92.60
2018-12-11T18:06:30.109Z,93.10
2018-12-11T18:09:06.410Z,93.20
2018-12-11T18:11:41.164Z,93.20
2018-12-11T18:14:15.565Z,93.30
2018-12-11T18:16:47.529Z,93.30
2018-12-11T18:19:20.234Z,93.30
2018-12-11T18:21:54.633Z,93.40
2018-12-11T18:24:28.858Z,93.50
2018-12-11T18:27:06.864Z,93.60
2018-12-11T18:29:41.177Z,93.60
2018-12-11T18:32:28.401Z,93.70
2018-12-11T18:35:01.525Z,93.70
2018-12-11T18:37:36.020Z,93.70
2018-12-11T18:40:10.040Z,93.70
2018-12-11T18:42:46.403Z,93.80
2018-12-11T18:45:20.655Z,93.90
2018-12-11T18:47:54.615Z,93.90
2018-12-11T18:50:29.113Z,93.90
2018-12-11T18:53:11.189Z,94.00
2018-12-11T18:55:45.650Z,94.00
2018-12-11T18:58:19.932Z,94.00
2018-12-11T19:00:53.847Z,94.00
2018-12-11T19:03:28.121Z,94.00
2018-12-11T19:06:02.450Z,94.00
2018-12-11T19:08:38.577Z,94.10
2018-12-11T19:11:13.030Z,94.10
2018-12-11T19:13:47.516Z,94.10
2018-12-11T19:16:21.892Z,94.30
2018-12-11T19:18:55.821Z,94.30
2018-12-11T19:21:30.000Z,94.30
2018-12-11T19:24:04.994Z,94.30
2018-12-11T19:26:38.956Z,94.30
2018-12-11T19:29:10.684Z,94.40
2018-12-11T19:31:44.581Z,94.40
2018-12-11T19:34:18.934Z,94.40
2018-12-11T19:37:06.443Z,94.50
2018-12-11T19:39:41.060Z,94.50
2018-12-11T19:45:15.610Z,94.60
2018-12-11T19:47:49.757Z,94.60
2018-12-11T19:50:23.901Z,94.60
2018-12-11T19:52:58.265Z,94.60
2018-12-11T19:55:32.178Z,94.60
2018-12-11T19:58:06.253Z,94.60
2018-12-11T20:00:42.279Z,94.60
2018-12-11T20:03:16.270Z,94.60
2018-12-11T20:05:54.329Z,94.60
2018-12-11T20:08:31.037Z,94.60
2018-12-11T20:11:04.821Z,94.60
2018-12-11T20:18:46.857Z,94.60
2018-12-11T20:24:27.154Z,94.60
2018-12-11T20:27:04.280Z,94.60
2018-12-11T20:29:38.566Z,94.50
2018-12-11T20:32:17.668Z,94.50
2018-12-11T20:34:51.820Z,94.40
2018-12-11T20:37:25.681Z,94.40
2018-12-11T20:39:59.976Z,94.40
2018-12-11T20:42:34.057Z,94.40
2018-12-11T20:45:08.129Z,94.40
2018-12-11T20:47:44.994Z,94.40
2018-12-11T20:50:19.355Z,94.30
2018-12-11T20:52:53.287Z,94.30
2018-12-11T20:55:31.264Z,94.40
2018-12-11T20:58:05.633Z,94.40
2018-12-11T21:00:39.595Z,94.40
2018-12-11T21:03:17.663Z,94.40
2018-12-11T21:05:51.759Z,94.40
2018-12-11T21:08:25.980Z,94.40
2018-12-11T21:11:00.756Z,94.40
2018-12-11T21:13:34.644Z,94.40
2018-12-11T21:16:11.077Z,94.30
2018-12-11T21:18:45.210Z,94.40
2018-12-11T21:21:18.043Z,94.40
2018-12-11T21:23:52.211Z,94.40
2018-12-11T21:26:29.770Z,94.40
2018-12-11T21:29:16.997Z,94.40
2018-12-11T21:34:54.996Z,94.40
2018-12-11T21:37:29.023Z,94.20
2018-12-11T21:40:04.058Z,94.10
2018-12-11T21:42:51.842Z,94.00
2018-12-11T21:45:25.863Z,94.10
2018-12-11T21:47:57.615Z,93.90
2018-12-11T21:50:31.560Z,93.90
2018-12-11T21:53:05.665Z,94.00
2018-12-11T21:55:40.042Z,94.10
2018-12-11T21:58:14.046Z,94.40
2018-12-11T22:00:48.073Z,94.50
2018-12-11T22:03:22.215Z,94.50
2018-12-11T22:05:56.455Z,94.60
2018-12-11T22:08:30.356Z,94.70
2018-12-11T22:11:04.288Z,94.60
2018-12-11T22:13:38.403Z,94.60
2018-12-11T22:16:12.820Z,94.60
2018-12-11T22:18:47.016Z,94.70
2018-12-11T22:21:20.974Z,94.70
2018-12-11T22:23:55.130Z,94.60
2018-12-11T22:26:29.364Z,94.70
2018-12-11T22:32:03.648Z,94.90
2018-12-11T22:34:37.928Z,94.90
2018-12-11T22:37:12.140Z,95.00
2018-12-11T22:39:46.021Z,95.10
2018-12-11T22:42:20.236Z,95.20
2018-12-11T22:44:54.348Z,95.40
2018-12-11T22:47:28.673Z,95.40
2018-12-11T22:50:03.297Z,95.50
2018-12-11T22:52:37.841Z,95.50
2018-12-11T22:55:12.510Z,95.60
2018-12-11T22:57:43.832Z,95.70
2018-12-11T23:00:18.537Z,95.70
2018-12-11T23:05:52.553Z,95.80
2018-12-11T23:08:26.789Z,95.80
2018-12-11T23:11:00.849Z,95.80
2018-12-11T23:13:35.307Z,95.80
2018-12-11T23:16:07.225Z,95.80
2018-12-11T23:18:45.412Z,95.80
2018-12-11T23:21:19.640Z,95.70
2018-12-11T23:23:54.011Z,95.70
2018-12-11T23:26:28.099Z,95.60
2018-12-11T23:29:02.248Z,95.50
2018-12-11T23:31:36.474Z,95.50
2018-12-11T23:34:11.327Z,95.50
2018-12-11T23:36:45.678Z,95.50
2018-12-11T23:47:08.177Z,95.50
2018-12-11T23:49:40.285Z,95.40
2018-12-11T23:52:11.454Z,95.40
2018-12-11T23:54:45.579Z,95.50
2018-12-11T23:57:24.741Z,95.50
